Time;durP1;ratioP1;P1;durP2;ratioP2;P2;SDS_P1;SDS_P2;PMS_P1;PMS_P2;Temp;Humidity;BMP_temperature;BMP_pressure;BME280_temperature;BME280_humidity;BME280_pressure;Samples;Min_cycle;Max_cycle;Signal;HPM_P1;HPM_P2
2021/03/11 00:01:35;;;;;;;11.35;8.60;;;;;;;;;;4973859;28;20743;-85
2021/03/11 00:04:01;;;;;;;14.35;9.07;;;;;;;;;;4960693;28;20454;-86
2021/03/11 00:06:26;;;;;;;10.73;9.13;;;;;;;;;;4957401;28;20416;-85
2021/03/11 00:08:52;;;;;;;11.03;8.17;;;;;;;;;;4972814;28;20404;-84
2021/03/11 00:11:18;;;;;;;11.40;8.43;;;;;;;;;;4952108;28;20431;-85
2021/03/11 00:13:44;;;;;;;14.20;8.73;;;;;;;;;;4957624;28;20411;-86
2021/03/11 00:16:10;;;;;;;10.40;7.72;;;;;;;;;;4954341;28;20410;-85
2021/03/11 00:18:36;;;;;;;9.30;7.25;;;;;;;;;;4973321;28;20408;-85
2021/03/11 00:21:02;;;;;;;9.10;7.05;;;;;;;;;;4974854;28;20531;-85
2021/03/11 00:23:28;;;;;;;7.93;6.93;;;;;;;;;;4973227;28;20499;-85
2021/03/11 00:25:54;;;;;;;9.03;6.83;;;;;;;;;;4953425;28;20817;-86
2021/03/11 00:28:20;;;;;;;7.72;6.57;;;;;;;;;;4977025;28;20408;-85
2021/03/11 00:30:46;;;;;;;7.85;5.82;;;;;;;;;;4957223;28;20760;-85
2021/03/11 00:33:12;;;;;;;6.53;5.80;;;;;;;;;;4955936;28;20487;-85
2021/03/11 00:35:38;;;;;;;10.90;6.40;;;;;;;;;;4957060;28;20409;-85
2021/03/11 00:38:04;;;;;;;7.00;6.30;;;;;;;;;;4956384;28;20396;-85
2021/03/11 00:40:32;;;;;;;8.32;5.88;;;;;;;;;;4957460;28;21022;-85
2021/03/11 00:42:59;;;;;;;8.73;5.05;;;;;;;;;;4973632;28;20483;-85
2021/03/11 00:45:25;;;;;;;8.13;5.73;;;;;;;;;;4956762;28;20428;-85
2021/03/11 00:47:51;;;;;;;5.68;4.93;;;;;;;;;;4961101;28;20422;-85
2021/03/11 00:50:18;;;;;;;6.75;5.22;;;;;;;;;;4971621;28;20903;-85
2021/03/11 00:52:44;;;;;;;5.25;4.72;;;;;;;;;;4972926;28;20396;-85
2021/03/11 00:55:11;;;;;;;8.45;5.43;;;;;;;;;;4956455;28;20412;-85
2021/03/11 00:57:37;;;;;;;5.95;4.90;;;;;;;;;;4951890;28;20437;-85
2021/03/11 01:00:06;;;;;;;6.63;5.03;;;;;;;;;;4972613;28;20817;-85
2021/03/11 01:02:32;;;;;;;5.38;4.75;;;;;;;;;;4955938;28;20423;-85
2021/03/11 01:04:58;;;;;;;7.68;4.75;;;;;;;;;;4972843;28;20416;-85
2021/03/11 01:07:24;;;;;;;5.67;5.07;;;;;;;;;;4972385;28;21097;-85
2021/03/11 01:09:50;;;;;;;5.57;4.90;;;;;;;;;;4970997;28;20416;-85
2021/03/11 01:12:16;;;;;;;5.75;4.47;;;;;;;;;;4972643;28;20902;-85
2021/03/11 01:14:42;;;;;;;6.05;4.70;;;;;;;;;;4956236;28;20404;-85
2021/03/11 01:17:08;;;;;;;5.35;4.68;;;;;;;;;;4956730;28;20392;-85
2021/03/11 01:19:34;;;;;;;5.93;4.50;;;;;;;;;;4973490;28;20414;-85
2021/03/11 01:22:00;;;;;;;5.85;4.57;;;;;;;;;;4956506;28;20463;-84
2021/03/11 01:24:30;;;;;;;6.97;4.22;;;;;;;;;;4971452;28;21038;-85
2021/03/11 01:26:56;;;;;;;5.68;4.18;;;;;;;;;;4956359;28;20491;-85
2021/03/11 01:29:22;;;;;;;5.35;4.00;;;;;;;;;;4949389;28;20593;-85
2021/03/11 01:31:48;;;;;;;4.83;4.23;;;;;;;;;;4956256;28;20467;-85
2021/03/11 01:34:14;;;;;;;4.32;3.55;;;;;;;;;;4956093;28;20824;-85
2021/03/11 01:36:40;;;;;;;4.05;3.53;;;;;;;;;;4973134;28;20459;-85
2021/03/11 01:39:06;;;;;;;4.43;3.50;;;;;;;;;;4986393;28;20958;-85
2021/03/11 01:41:32;;;;;;;5.20;3.47;;;;;;;;;;4970438;28;20412;-85
2021/03/11 01:43:58;;;;;;;3.97;3.13;;;;;;;;;;4955620;28;20440;-85
2021/03/11 01:46:25;;;;;;;3.55;3.25;;;;;;;;;;4971884;28;20404;-85
2021/03/11 01:48:51;;;;;;;5.00;2.80;;;;;;;;;;4971700;28;20454;-85
2021/03/11 01:51:17;;;;;;;2.90;2.70;;;;;;;;;;4955759;28;20413;-84
2021/03/11 01:53:43;;;;;;;3.22;2.70;;;;;;;;;;4971521;28;20502;-85
2021/03/11 01:56:09;;;;;;;3.60;2.97;;;;;;;;;;4972073;28;20480;-85
2021/03/11 01:58:35;;;;;;;5.27;2.90;;;;;;;;;;4953626;28;20798;-85
2021/03/11 02:01:01;;;;;;;3.40;2.78;;;;;;;;;;4955438;28;20408;-85
2021/03/11 02:03:27;;;;;;;3.15;2.95;;;;;;;;;;4955381;28;20427;-85
2021/03/11 02:05:53;;;;;;;4.05;2.92;;;;;;;;;;4971884;28;20419;-85
2021/03/11 02:08:19;;;;;;;3.70;3.40;;;;;;;;;;4970233;28;20412;-85
2021/03/11 02:10:47;;;;;;;3.67;3.37;;;;;;;;;;4971290;28;20486;-85
2021/03/11 02:13:16;;;;;;;3.78;3.47;;;;;;;;;;4969380;28;20906;-85
2021/03/11 02:15:42;;;;;;;3.78;3.47;;;;;;;;;;4970746;28;21233;-85
2021/03/11 02:18:41;;;;;;;6.73;4.43;;;;;;;;;;4971636;28;20389;-85
2021/03/11 02:21:11;;;;;;;5.03;4.20;;;;;;;;;;4919419;28;20467;-85
2021/03/11 02:23:56;;;;;;;5.50;5.00;;;;;;;;;;4954690;28;20969;-85
2021/03/11 02:26:24;;;;;;;5.72;5.15;;;;;;;;;;4970368;28;20408;-85
2021/03/11 02:29:17;;;;;;;5.82;5.32;;;;;;;;;;4971709;28;20728;-85
2021/03/11 02:31:43;;;;;;;8.70;5.75;;;;;;;;;;4968417;28;20415;-86
2021/03/11 02:34:19;;;;;;;8.07;6.38;;;;;;;;;;4973479;28;20392;-85
2021/03/11 02:36:45;;;;;;;7.30;5.90;;;;;;;;;;4972494;28;20496;-85
2021/03/11 02:39:13;;;;;;;7.35;6.00;;;;;;;;;;4974571;28;20507;-86
2021/03/11 02:41:39;;;;;;;8.60;6.72;;;;;;;;;;4975155;28;20482;-85
2021/03/11 02:44:05;;;;;;;9.07;6.60;;;;;;;;;;4959299;28;20531;-85
2021/03/11 02:46:31;;;;;;;8.90;6.82;;;;;;;;;;4974527;28;20425;-85
2021/03/11 02:48:57;;;;;;;9.00;7.35;;;;;;;;;;4959108;28;20450;-85
2021/03/11 02:51:23;;;;;;;10.80;8.02;;;;;;;;;;4958788;28;20428;-85
2021/03/11 02:53:49;;;;;;;10.95;8.00;;;;;;;;;;4974393;28;21006;-85
2021/03/11 02:56:15;;;;;;;11.00;8.15;;;;;;;;;;4955529;28;21061;-85
2021/03/11 02:58:41;;;;;;;11.50;8.73;;;;;;;;;;4954124;28;20412;-85
2021/03/11 03:01:08;;;;;;;12.82;8.75;;;;;;;;;;4973965;28;20407;-85
2021/03/11 03:03:33;;;;;;;11.65;9.02;;;;;;;;;;4956112;28;20445;-85
2021/03/11 03:05:59;;;;;;;12.10;8.02;;;;;;;;;;4991228;28;20400;-86
2021/03/11 03:08:25;;;;;;;10.70;8.77;;;;;;;;;;4974519;28;20432;-85
2021/03/11 03:10:52;;;;;;;11.55;9.30;;;;;;;;;;4968763;28;20474;-85
2021/03/11 03:13:18;;;;;;;12.93;9.05;;;;;;;;;;4958349;28;20420;-85
2021/03/11 03:15:44;;;;;;;12.13;8.60;;;;;;;;;;4974851;28;20875;-85
2021/03/11 03:18:11;;;;;;;11.10;9.10;;;;;;;;;;4957742;28;20396;-85
2021/03/11 03:20:39;;;;;;;12.48;9.43;;;;;;;;;;4957389;28;20767;-85
2021/03/11 03:23:05;;;;;;;11.57;8.83;;;;;;;;;;4955479;28;20797;-85
2021/03/11 03:25:32;;;;;;;11.35;9.05;;;;;;;;;;4973672;28;20428;-86
2021/03/11 03:27:58;;;;;;;9.90;8.77;;;;;;;;;;4941324;29;20402;-85
2021/03/11 03:30:24;;;;;;;10.85;8.57;;;;;;;;;;4955464;28;20433;-85
2021/03/11 03:32:50;;;;;;;11.93;8.57;;;;;;;;;;4953378;28;20459;-85
2021/03/11 03:35:17;;;;;;;12.95;8.70;;;;;;;;;;4973523;28;20420;-85
2021/03/11 03:37:43;;;;;;;11.02;8.43;;;;;;;;;;4958521;28;20447;-85
2021/03/11 03:40:10;;;;;;;9.95;8.63;;;;;;;;;;4957226;28;20439;-85
2021/03/11 03:42:36;;;;;;;11.48;8.75;;;;;;;;;;4973275;28;20423;-85
2021/03/11 03:45:03;;;;;;;13.98;8.65;;;;;;;;;;4972777;28;20727;-86
2021/03/11 03:47:29;;;;;;;10.50;8.10;;;;;;;;;;4957682;28;20447;-85
2021/03/11 03:49:58;;;;;;;9.70;7.80;;;;;;;;;;4974058;28;20451;-85
2021/03/11 03:52:24;;;;;;;14.48;7.97;;;;;;;;;;4990258;28;20388;-85
2021/03/11 03:54:50;;;;;;;10.45;7.40;;;;;;;;;;4973836;28;21002;-85
2021/03/11 03:57:22;;;;;;;9.75;8.15;;;;;;;;;;4973627;28;20407;-85
2021/03/11 03:59:51;;;;;;;10.85;7.53;;;;;;;;;;4971647;28;20404;-85
2021/03/11 04:02:18;;;;;;;9.25;7.43;;;;;;;;;;4957043;28;20404;-85
2021/03/11 04:04:44;;;;;;;11.02;7.72;;;;;;;;;;4973838;28;20423;-86
2021/03/11 04:07:14;;;;;;;8.70;7.43;;;;;;;;;;4957898;28;20392;-85
2021/03/11 04:09:40;;;;;;;10.70;6.88;;;;;;;;;;4972782;28;20420;-85
2021/03/11 04:12:09;;;;;;;8.53;6.63;;;;;;;;;;4957933;28;20451;-85
2021/03/11 04:14:36;;;;;;;6.97;6.25;;;;;;;;;;4973362;28;20419;-85
2021/03/11 04:17:02;;;;;;;13.27;6.68;;;;;;;;;;4957596;28;20571;-85
2021/03/11 04:19:28;;;;;;;7.82;5.78;;;;;;;;;;4973210;28;20905;-85
2021/03/11 04:21:54;;;;;;;6.38;5.78;;;;;;;;;;4973691;28;20389;-85
2021/03/11 04:24:20;;;;;;;7.30;6.40;;;;;;;;;;4956843;28;20435;-86
2021/03/11 04:26:46;;;;;;;7.70;6.20;;;;;;;;;;4945944;28;20409;-85
2021/03/11 04:29:12;;;;;;;9.13;6.25;;;;;;;;;;4973279;28;20958;-86
2021/03/11 04:31:38;;;;;;;9.45;6.13;;;;;;;;;;4957253;28;20957;-85
2021/03/11 04:34:04;;;;;;;9.68;6.05;;;;;;;;;;4973229;28;20495;-85
2021/03/11 04:36:33;;;;;;;8.23;5.80;;;;;;;;;;4973159;28;20473;-85
2021/03/11 04:38:59;;;;;;;7.15;5.80;;;;;;;;;;4971635;28;20416;-85
2021/03/11 04:41:25;;;;;;;7.27;6.03;;;;;;;;;;4973105;28;20855;-85
2021/03/11 04:43:51;;;;;;;11.23;6.50;;;;;;;;;;4956579;28;20503;-85
2021/03/11 04:46:18;;;;;;;7.05;5.63;;;;;;;;;;4988886;28;20855;-85
2021/03/11 04:48:44;;;;;;;7.47;5.63;;;;;;;;;;4973174;28;20392;-85
2021/03/11 04:51:11;;;;;;;7.65;5.97;;;;;;;;;;4973216;28;20740;-85
2021/03/11 04:53:37;;;;;;;8.97;5.83;;;;;;;;;;4955532;28;20491;-85
2021/03/11 04:56:05;;;;;;;8.77;5.40;;;;;;;;;;4980641;28;20509;-85
2021/03/11 04:58:31;;;;;;;9.60;5.88;;;;;;;;;;4948162;28;20414;-85
2021/03/11 05:00:57;;;;;;;9.77;6.32;;;;;;;;;;4972041;28;20500;-85
2021/03/11 05:03:23;;;;;;;7.35;5.60;;;;;;;;;;4972935;28;20408;-85
2021/03/11 05:05:49;;;;;;;7.03;5.43;;;;;;;;;;4941270;28;20416;-85
2021/03/11 05:08:14;;;;;;;9.95;6.40;;;;;;;;;;4972012;28;20440;-85
2021/03/11 05:10:41;;;;;;;6.18;5.05;;;;;;;;;;4972210;28;20405;-85
2021/03/11 05:13:06;;;;;;;8.13;4.90;;;;;;;;;;4972858;28;20388;-85
2021/03/11 05:15:32;;;;;;;4.72;4.25;;;;;;;;;;4973757;28;20411;-84
2021/03/11 05:17:58;;;;;;;5.03;4.50;;;;;;;;;;4956078;28;20418;-85
2021/03/11 05:20:25;;;;;;;5.57;4.25;;;;;;;;;;4971808;28;20412;-85
2021/03/11 05:22:51;;;;;;;5.60;4.17;;;;;;;;;;4971867;28;20827;-85
2021/03/11 05:25:17;;;;;;;5.22;4.18;;;;;;;;;;4952028;29;20925;-84
2021/03/11 05:27:43;;;;;;;4.85;3.83;;;;;;;;;;4947515;28;20419;-85
2021/03/11 05:30:09;;;;;;;5.75;4.25;;;;;;;;;;4973343;28;20414;-84
2021/03/11 05:32:35;;;;;;;4.43;3.97;;;;;;;;;;4955907;28;20475;-85
2021/03/11 05:35:02;;;;;;;6.35;4.25;;;;;;;;;;4941481;29;20421;-84
2021/03/11 05:40:31;;;;;;;3.97;3.50;;;;;;;;;;4972823;28;20407;-85
2021/03/11 05:42:58;;;;;;;7.80;4.27;;;;;;;;;;4972287;28;20474;-85
2021/03/11 05:45:25;;;;;;;5.88;3.67;;;;;;;;;;4956065;28;20432;-85
2021/03/11 05:47:51;;;;;;;5.22;3.40;;;;;;;;;;4971936;28;20576;-85
2021/03/11 05:50:16;;;;;;;5.65;3.65;;;;;;;;;;4972373;28;20449;-85
2021/03/11 05:52:42;;;;;;;7.13;2.80;;;;;;;;;;4955472;28;20502;-85
2021/03/11 05:55:09;;;;;;;3.35;2.75;;;;;;;;;;4971207;28;20815;-85
2021/03/11 05:57:38;;;;;;;3.25;2.95;;;;;;;;;;4972839;28;20408;-84
2021/03/11 06:00:04;;;;;;;3.30;2.70;;;;;;;;;;4955317;28;20408;-85
2021/03/11 06:02:30;;;;;;;5.53;2.88;;;;;;;;;;4971754;28;20933;-85
2021/03/11 06:04:56;;;;;;;4.37;2.37;;;;;;;;;;4971631;28;20428;-85
2021/03/11 06:07:27;;;;;;;9.63;5.32;;;;;;;;;;4969486;28;20423;-85
2021/03/11 06:09:55;;;;;;;4.73;3.50;;;;;;;;;;4956513;28;20418;-84
2021/03/11 06:12:21;;;;;;;4.57;3.35;;;;;;;;;;4969073;28;20407;-85
2021/03/11 06:14:47;;;;;;;4.10;2.47;;;;;;;;;;4945186;28;20477;-85
2021/03/11 06:17:13;;;;;;;6.10;4.60;;;;;;;;;;4963599;28;20707;-84
2021/03/11 06:19:39;;;;;;;7.05;4.40;;;;;;;;;;4971735;28;20492;-85
2021/03/11 06:22:05;;;;;;;3.47;3.03;;;;;;;;;;4955767;28;20875;-85
2021/03/11 06:24:31;;;;;;;6.82;3.35;;;;;;;;;;4971704;28;20515;-84
2021/03/11 06:26:57;;;;;;;8.00;4.22;;;;;;;;;;4964984;28;20406;-84
2021/03/11 06:29:39;;;;;;;7.43;5.13;;;;;;;;;;4952410;28;20948;-88
2021/03/11 06:32:09;;;;;;;4.43;2.88;;;;;;;;;;4965781;28;20392;-85
2021/03/11 06:34:35;;;;;;;3.22;2.20;;;;;;;;;;4971589;28;20403;-84
2021/03/11 06:37:04;;;;;;;4.40;2.60;;;;;;;;;;4953491;28;20404;-85
2021/03/11 06:39:34;;;;;;;2.95;2.38;;;;;;;;;;4971052;28;20771;-84
2021/03/11 06:45:25;;;;;;;5.65;2.70;;;;;;;;;;4929801;28;20482;-85
2021/03/11 06:48:30;;;;;;;2.83;2.42;;;;;;;;;;4971327;28;20795;-85
2021/03/11 06:50:56;;;;;;;3.87;2.47;;;;;;;;;;4946684;28;20452;-86
2021/03/11 06:53:22;;;;;;;3.63;2.35;;;;;;;;;;4971132;28;20417;-84
2021/03/11 06:55:48;;;;;;;2.63;2.42;;;;;;;;;;4971077;28;20420;-86
2021/03/11 06:58:18;;;;;;;6.38;2.50;;;;;;;;;;4955225;28;20463;-84
2021/03/11 07:00:44;;;;;;;3.42;2.08;;;;;;;;;;4970916;28;20925;-86
2021/03/11 07:03:12;;;;;;;3.33;2.10;;;;;;;;;;4954181;28;20914;-87
2021/03/11 07:05:42;;;;;;;3.95;2.40;;;;;;;;;;4963778;28;20437;-84
2021/03/11 07:08:13;;;;;;;3.47;2.00;;;;;;;;;;4948661;29;20434;-84
2021/03/11 07:10:39;;;;;;;5.75;2.65;;;;;;;;;;4971062;28;20408;-83
2021/03/11 07:13:05;;;;;;;4.32;2.47;;;;;;;;;;4970363;28;20442;-84
2021/03/11 07:15:32;;;;;;;4.65;2.10;;;;;;;;;;4968370;28;20408;-85
2021/03/11 07:17:58;;;;;;;4.32;2.38;;;;;;;;;;4968794;28;20804;-83
2021/03/11 07:20:31;;;;;;;4.20;2.10;;;;;;;;;;4972939;28;20416;-83
2021/03/11 07:23:00;;;;;;;3.17;1.88;;;;;;;;;;4974297;28;20403;-83
2021/03/11 07:25:27;;;;;;;4.43;2.28;;;;;;;;;;4975821;28;20428;-84
2021/03/11 07:27:53;;;;;;;4.25;1.73;;;;;;;;;;4975523;28;20404;-83
2021/03/11 07:30:19;;;;;;;2.00;1.90;;;;;;;;;;4972841;28;20420;-84
2021/03/11 07:32:46;;;;;;;2.20;2.00;;;;;;;;;;4973674;28;20780;-83
2021/03/11 07:35:18;;;;;;;3.90;2.47;;;;;;;;;;4973832;28;20415;-83
2021/03/11 07:37:56;;;;;;;1.73;1.55;;;;;;;;;;4973184;28;20404;-85
2021/03/11 07:40:45;;;;;;;2.80;1.73;;;;;;;;;;4972884;28;20921;-85
2021/03/11 07:43:14;;;;;;;2.20;1.43;;;;;;;;;;4959822;28;20915;-85
2021/03/11 07:45:40;;;;;;;2.60;1.70;;;;;;;;;;4972110;28;20963;-84
2021/03/11 07:48:14;;;;;;;2.80;1.95;;;;;;;;;;4968095;28;20435;-84
2021/03/11 07:50:43;;;;;;;1.88;1.77;;;;;;;;;;4958769;28;20425;-85
2021/03/11 07:53:09;;;;;;;4.32;1.58;;;;;;;;;;4929254;29;20468;-84
2021/03/11 07:55:35;;;;;;;3.67;1.87;;;;;;;;;;4926610;29;20418;-85
2021/03/11 07:58:07;;;;;;;3.00;1.67;;;;;;;;;;4937628;28;20402;-85
2021/03/11 08:00:33;;;;;;;4.00;2.88;;;;;;;;;;4932652;29;20415;-85
2021/03/11 08:03:13;;;;;;;4.63;2.55;;;;;;;;;;4950492;29;20410;-85
2021/03/11 08:05:39;;;;;;;4.20;1.73;;;;;;;;;;4954781;28;20549;-85
2021/03/11 08:08:08;;;;;;;3.10;1.80;;;;;;;;;;4919787;28;20392;-84
2021/03/11 08:10:34;;;;;;;2.55;1.88;;;;;;;;;;4955057;28;20528;-85
2021/03/11 08:13:01;;;;;;;2.92;2.08;;;;;;;;;;4930531;29;20961;-85
2021/03/11 08:15:27;;;;;;;3.03;1.70;;;;;;;;;;4936510;29;20437;-84
2021/03/11 08:17:56;;;;;;;5.70;2.10;;;;;;;;;;4955125;29;20991;-85
2021/03/11 08:20:25;;;;;;;5.50;2.40;;;;;;;;;;4952627;28;20531;-84
2021/03/11 08:22:55;;;;;;;5.15;1.65;;;;;;;;;;4954943;28;20774;-84
2021/03/11 08:25:37;;;;;;;2.50;1.95;;;;;;;;;;4937275;29;20430;-85
2021/03/11 08:28:05;;;;;;;2.17;1.70;;;;;;;;;;4954144;29;20710;-85
2021/03/11 08:30:41;;;;;;;2.13;1.77;;;;;;;;;;4943930;28;21049;-85
2021/03/11 08:33:19;;;;;;;4.50;1.83;;;;;;;;;;4954155;28;20497;-85
2021/03/11 08:35:45;;;;;;;2.80;1.88;;;;;;;;;;4924093;29;20398;-85
2021/03/11 08:38:20;;;;;;;2.95;1.98;;;;;;;;;;4936969;29;20449;-84
2021/03/11 08:40:53;;;;;;;2.60;1.90;;;;;;;;;;4944965;29;20397;-85
2021/03/11 08:43:37;;;;;;;3.78;2.33;;;;;;;;;;4953574;28;20473;-85
2021/03/11 08:46:13;;;;;;;3.58;1.80;;;;;;;;;;4957223;28;20458;-85
2021/03/11 08:48:40;;;;;;;3.20;1.77;;;;;;;;;;4972819;28;20413;-85
2021/03/11 08:51:06;;;;;;;5.15;1.77;;;;;;;;;;4974001;28;20435;-85
2021/03/11 08:53:38;;;;;;;1.92;1.40;;;;;;;;;;4988473;28;20503;-85
2021/03/11 08:56:34;;;;;;;4.65;1.70;;;;;;;;;;4972952;28;20507;-85
2021/03/11 08:59:00;;;;;;;1.77;1.30;;;;;;;;;;4948433;28;20492;-85
2021/03/11 09:01:29;;;;;;;3.50;1.13;;;;;;;;;;4962881;28;20415;-85
2021/03/11 09:03:56;;;;;;;3.88;1.25;;;;;;;;;;4973418;28;20474;-85
2021/03/11 09:06:42;;;;;;;5.93;1.63;;;;;;;;;;4973031;28;20416;-85
2021/03/11 09:09:08;;;;;;;2.55;1.27;;;;;;;;;;4972011;28;20392;-84
2021/03/11 09:11:33;;;;;;;2.22;1.20;;;;;;;;;;4971079;28;20852;-84
2021/03/11 09:13:59;;;;;;;5.82;1.38;;;;;;;;;;4971419;28;20408;-85
2021/03/11 09:16:26;;;;;;;4.90;1.05;;;;;;;;;;4971990;28;20764;-85
2021/03/11 09:18:55;;;;;;;4.40;1.38;;;;;;;;;;4971598;28;20876;-84
2021/03/11 09:21:30;;;;;;;2.83;1.20;;;;;;;;;;4970301;28;20455;-86
2021/03/11 09:24:05;;;;;;;1.70;1.17;;;;;;;;;;4972939;28;20993;-86
2021/03/11 09:26:37;;;;;;;1.83;1.10;;;;;;;;;;4972291;28;20412;-86
2021/03/11 09:29:05;;;;;;;3.78;1.10;;;;;;;;;;4971987;28;20404;-87
2021/03/11 09:31:31;;;;;;;2.60;1.70;;;;;;;;;;4972343;28;20499;-87
2021/03/11 09:33:57;;;;;;;1.10;1.02;;;;;;;;;;4956110;28;20515;-87
2021/03/11 09:36:26;;;;;;;3.75;1.50;;;;;;;;;;4956507;28;20462;-87
2021/03/11 09:38:52;;;;;;;1.40;1.30;;;;;;;;;;4951852;28;20505;-87
2021/03/11 09:41:25;;;;;;;1.67;1.58;;;;;;;;;;4961925;28;20440;-88
2021/03/11 09:43:51;;;;;;;1.40;1.27;;;;;;;;;;4956097;28;20420;-87
2021/03/11 09:46:17;;;;;;;0.93;0.93;;;;;;;;;;4955891;28;20424;-87
2021/03/11 09:48:44;;;;;;;2.55;1.00;;;;;;;;;;4970581;28;20528;-87
2021/03/11 09:51:17;;;;;;;0.82;0.75;;;;;;;;;;4969552;28;20768;-87
2021/03/11 09:53:56;;;;;;;1.00;1.00;;;;;;;;;;4972628;28;20416;-87
2021/03/11 09:56:23;;;;;;;0.80;0.80;;;;;;;;;;4972311;28;20412;-87
2021/03/11 09:58:53;;;;;;;1.17;0.95;;;;;;;;;;4973131;28;20403;-87
2021/03/11 10:01:25;;;;;;;3.60;0.70;;;;;;;;;;4971497;28;20432;-86
2021/03/11 10:03:51;;;;;;;5.53;1.20;;;;;;;;;;4971738;28;20420;-86
2021/03/11 10:06:19;;;;;;;1.58;0.93;;;;;;;;;;4972467;28;20935;-87
2021/03/11 10:08:45;;;;;;;4.53;1.00;;;;;;;;;;4972189;28;20910;-87
2021/03/11 10:11:13;;;;;;;4.10;0.93;;;;;;;;;;4971918;28;20400;-87
2021/03/11 11:23:37;;;;;;;2.85;2.53;;;;;;;;;;5120220;27;20372;-86
2021/03/11 11:26:03;;;;;;;2.78;1.90;;;;;;;;;;5096389;28;20408;-85
2021/03/11 11:28:32;;;;;;;3.65;1.40;;;;;;;;;;5099359;28;20456;-85
2021/03/11 11:30:58;;;;;;;6.53;2.08;;;;;;;;;;5093927;28;20397;-86
2021/03/11 11:33:24;;;;;;;2.83;2.53;;;;;;;;;;5093353;28;20403;-85
2021/03/11 11:35:50;;;;;;;2.90;1.40;;;;;;;;;;5084413;28;20427;-85
2021/03/11 11:38:17;;;;;;;2.70;1.67;;;;;;;;;;5103236;28;20492;-87
2021/03/11 11:40:43;;;;;;;1.50;1.10;;;;;;;;;;5101085;28;20393;-87
2021/03/11 11:43:09;;;;;;;2.40;1.50;;;;;;;;;;5090644;28;20419;-86
2021/03/11 11:45:34;;;;;;;1.45;1.25;;;;;;;;;;5104422;28;20439;-86
2021/03/11 11:48:00;;;;;;;1.27;1.20;;;;;;;;;;5104086;28;20481;-88
2021/03/11 11:50:28;;;;;;;3.20;1.35;;;;;;;;;;5109414;28;20439;-88
2021/03/11 11:52:54;;;;;;;1.90;1.80;;;;;;;;;;5096693;28;20415;-85
2021/03/11 11:55:20;;;;;;;2.30;1.53;;;;;;;;;;5081102;28;20525;-87
2021/03/11 11:57:46;;;;;;;5.53;1.60;;;;;;;;;;5104193;28;20390;-86
2021/03/11 12:00:16;;;;;;;2.50;1.60;;;;;;;;;;5104120;28;20437;-85
2021/03/11 12:02:45;;;;;;;1.77;1.67;;;;;;;;;;5119397;28;20873;-87
2021/03/11 12:05:11;;;;;;;1.30;1.20;;;;;;;;;;5093023;28;20759;-87
2021/03/11 12:07:38;;;;;;;3.63;1.15;;;;;;;;;;5085186;28;20438;-87
2021/03/11 12:10:04;;;;;;;1.60;1.50;;;;;;;;;;5100095;28;20403;-87
2021/03/11 12:12:30;;;;;;;1.30;1.30;;;;;;;;;;5103861;28;20423;-84
2021/03/11 12:14:56;;;;;;;1.70;1.20;;;;;;;;;;5105482;28;20400;-87
2021/03/11 12:17:22;;;;;;;1.10;1.10;;;;;;;;;;5104702;28;20412;-88
2021/03/11 12:19:48;;;;;;;1.30;1.10;;;;;;;;;;5086097;28;20478;-86
2021/03/11 12:22:14;;;;;;;1.17;1.08;;;;;;;;;;5086509;28;20482;-85
2021/03/11 12:24:40;;;;;;;1.08;1.02;;;;;;;;;;5072003;28;20858;-88
2021/03/11 12:27:06;;;;;;;2.88;1.20;;;;;;;;;;5073687;28;20413;-85
2021/03/11 12:29:32;;;;;;;1.27;1.00;;;;;;;;;;5083483;28;20404;-84
2021/03/11 12:31:58;;;;;;;1.65;1.10;;;;;;;;;;5105784;28;20411;-86
2021/03/11 12:34:24;;;;;;;3.25;1.35;;;;;;;;;;5089759;28;20924;-85
2021/03/11 12:36:50;;;;;;;1.95;1.20;;;;;;;;;;5072508;28;20431;-87
2021/03/11 12:39:18;;;;;;;2.28;1.67;;;;;;;;;;5088106;28;20392;-88
2021/03/11 12:41:44;;;;;;;0.90;0.90;;;;;;;;;;5086845;28;20503;-88
2021/03/11 12:44:13;;;;;;;2.20;0.85;;;;;;;;;;5075347;28;20872;-91
2021/03/11 12:46:39;;;;;;;2.45;0.98;;;;;;;;;;5089377;28;20399;-89
2021/03/11 12:49:05;;;;;;;2.25;1.10;;;;;;;;;;5086615;28;20746;-88
2021/03/11 12:51:34;;;;;;;1.27;1.27;;;;;;;;;;5086334;28;20785;-88
2021/03/11 12:54:06;;;;;;;1.33;1.10;;;;;;;;;;5070658;28;20410;-88
2021/03/11 12:56:32;;;;;;;1.45;1.33;;;;;;;;;;5085605;28;20879;-88
2021/03/11 12:58:58;;;;;;;1.40;1.30;;;;;;;;;;5091415;28;20408;-88
2021/03/11 13:01:25;;;;;;;2.17;1.35;;;;;;;;;;5102242;28;20408;-88
2021/03/11 13:03:51;;;;;;;2.00;1.40;;;;;;;;;;5085673;28;20902;-88
2021/03/11 13:06:18;;;;;;;3.53;1.48;;;;;;;;;;5069127;28;20405;-88
2021/03/11 13:08:44;;;;;;;2.22;1.40;;;;;;;;;;5069953;28;20964;-88
2021/03/11 13:11:10;;;;;;;2.83;2.03;;;;;;;;;;5085676;28;21411;-87
2021/03/11 13:13:36;;;;;;;2.58;2.38;;;;;;;;;;5057383;28;20492;-88
2021/03/11 13:16:04;;;;;;;2.28;2.13;;;;;;;;;;5076762;28;20544;-88
2021/03/11 13:18:33;;;;;;;2.00;1.90;;;;;;;;;;5074124;28;20413;-88
2021/03/11 13:20:59;;;;;;;2.10;1.70;;;;;;;;;;5055288;28;20407;-89
2021/03/11 13:23:25;;;;;;;2.67;2.47;;;;;;;;;;5059992;28;20471;-88
2021/03/11 13:25:53;;;;;;;2.70;1.70;;;;;;;;;;5094481;28;20405;-87
2021/03/11 13:28:19;;;;;;;1.70;1.65;;;;;;;;;;5063594;28;20398;-87
2021/03/11 13:30:46;;;;;;;1.58;1.50;;;;;;;;;;5054698;28;20412;-87
2021/03/11 13:33:12;;;;;;;1.60;1.42;;;;;;;;;;5066868;28;20431;-87
2021/03/11 13:35:38;;;;;;;1.60;1.40;;;;;;;;;;5066567;28;20398;-88
2021/03/11 13:38:04;;;;;;;1.58;1.27;;;;;;;;;;5073925;28;20421;-88
2021/03/11 13:40:30;;;;;;;5.45;1.50;;;;;;;;;;5062092;28;20765;-88
2021/03/11 13:43:00;;;;;;;1.67;1.23;;;;;;;;;;5071315;28;20392;-87
2021/03/11 13:45:26;;;;;;;1.33;1.23;;;;;;;;;;5051839;28;20406;-88
2021/03/11 13:47:52;;;;;;;1.52;1.42;;;;;;;;;;5069763;28;20408;-88
2021/03/11 13:50:18;;;;;;;1.45;1.25;;;;;;;;;;5105531;28;20563;-88
2021/03/11 13:52:44;;;;;;;1.40;1.30;;;;;;;;;;5086985;28;20914;-88
2021/03/11 13:55:11;;;;;;;1.53;1.20;;;;;;;;;;5087751;28;20754;-89
2021/03/11 13:57:37;;;;;;;1.67;1.57;;;;;;;;;;5076754;28;20438;-88
2021/03/11 14:00:04;;;;;;;3.30;2.27;;;;;;;;;;5066432;28;20401;-88
2021/03/11 14:02:30;;;;;;;4.60;1.50;;;;;;;;;;5072752;28;20481;-88
2021/03/11 14:04:56;;;;;;;3.25;1.13;;;;;;;;;;5097157;28;20916;-88
2021/03/11 14:07:22;;;;;;;5.53;1.60;;;;;;;;;;5077361;28;20426;-87
2021/03/11 14:09:48;;;;;;;1.58;1.20;;;;;;;;;;5057565;28;20549;-88
2021/03/11 14:12:14;;;;;;;1.13;1.00;;;;;;;;;;5084951;28;20421;-90
2021/03/11 14:14:40;;;;;;;0.52;0.50;;;;;;;;;;5072547;28;20801;-91
2021/03/11 14:17:06;;;;;;;0.80;0.80;;;;;;;;;;5079508;28;20442;-88
2021/03/11 14:19:32;;;;;;;1.40;0.60;;;;;;;;;;5079027;28;20883;-89
2021/03/11 14:21:59;;;;;;;2.30;1.25;;;;;;;;;;5084516;28;20839;-89
2021/03/11 14:24:25;;;;;;;1.30;1.15;;;;;;;;;;5073790;28;20911;-88
2021/03/11 14:26:51;;;;;;;2.40;0.75;;;;;;;;;;5084691;28;20398;-88
2021/03/11 14:29:17;;;;;;;1.73;1.63;;;;;;;;;;5074972;28;20401;-88
2021/03/11 14:31:43;;;;;;;1.55;1.20;;;;;;;;;;5059164;28;20413;-88
2021/03/11 14:34:09;;;;;;;1.80;1.50;;;;;;;;;;5090728;28;20413;-89
2021/03/11 14:36:35;;;;;;;1.60;0.90;;;;;;;;;;5094237;28;20496;-88
2021/03/11 14:39:01;;;;;;;1.43;1.30;;;;;;;;;;5071146;28;20384;-86
2021/03/11 14:41:27;;;;;;;1.30;1.10;;;;;;;;;;5099361;28;20454;-88
2021/03/11 14:44:00;;;;;;;1.95;1.70;;;;;;;;;;5104402;28;20876;-89
2021/03/11 14:46:32;;;;;;;0.80;0.80;;;;;;;;;;5080953;28;20401;-90
2021/03/11 14:48:58;;;;;;;1.67;1.05;;;;;;;;;;5066927;28;20799;-89
2021/03/11 14:51:24;;;;;;;2.53;1.27;;;;;;;;;;5095610;27;20430;-88
2021/03/11 14:53:50;;;;;;;1.40;1.40;;;;;;;;;;5080557;28;20447;-88
2021/03/11 14:56:16;;;;;;;1.70;1.60;;;;;;;;;;5073512;28;20409;-89
2021/03/11 14:58:42;;;;;;;2.20;1.10;;;;;;;;;;5096438;27;20772;-88
2021/03/11 15:01:09;;;;;;;1.20;1.08;;;;;;;;;;5099001;27;20416;-88
2021/03/11 15:03:35;;;;;;;1.60;0.60;;;;;;;;;;5069629;28;20397;-87
2021/03/11 15:06:01;;;;;;;3.60;1.00;;;;;;;;;;5057418;28;20957;-88
2021/03/11 15:08:33;;;;;;;7.50;2.13;;;;;;;;;;5103028;28;20384;-88
2021/03/11 15:11:02;;;;;;;2.00;1.00;;;;;;;;;;5109485;28;20394;-87
2021/03/11 15:13:30;;;;;;;0.93;0.82;;;;;;;;;;5090601;28;20390;-90
2021/03/11 15:15:56;;;;;;;1.15;1.00;;;;;;;;;;5059855;28;20491;-88
2021/03/11 15:18:22;;;;;;;3.27;1.13;;;;;;;;;;5070514;28;20405;-88
2021/03/11 15:20:48;;;;;;;2.90;2.30;;;;;;;;;;5055225;28;20747;-88
2021/03/11 15:23:14;;;;;;;3.28;1.48;;;;;;;;;;5099320;28;20779;-88
2021/03/11 15:25:41;;;;;;;1.63;1.52;;;;;;;;;;5072145;28;20420;-89
2021/03/11 15:28:07;;;;;;;2.20;1.97;;;;;;;;;;5051310;28;20827;-88
2021/03/11 15:30:33;;;;;;;5.63;2.47;;;;;;;;;;5069180;28;20399;-88
2021/03/11 15:33:02;;;;;;;3.05;2.70;;;;;;;;;;5059253;28;20474;-88
2021/03/11 15:35:30;;;;;;;1.70;1.60;;;;;;;;;;5098519;28;20901;-89
2021/03/11 15:38:01;;;;;;;1.42;0.90;;;;;;;;;;5056127;28;20422;-88
2021/03/11 15:40:27;;;;;;;1.90;0.90;;;;;;;;;;5066872;28;20410;-89
2021/03/11 15:42:53;;;;;;;1.88;0.80;;;;;;;;;;5100811;28;20435;-89
2021/03/11 15:45:21;;;;;;;1.25;0.80;;;;;;;;;;5084010;28;20911;-88
2021/03/11 15:47:48;;;;;;;1.40;0.70;;;;;;;;;;5098706;28;20453;-89
2021/03/11 15:50:14;;;;;;;3.13;0.60;;;;;;;;;;5061274;28;20389;-89
2021/03/11 15:52:40;;;;;;;1.40;0.52;;;;;;;;;;5066226;28;20412;-89
2021/03/11 15:55:06;;;;;;;5.32;1.50;;;;;;;;;;5053609;28;20409;-88
2021/03/11 15:57:35;;;;;;;1.20;0.80;;;;;;;;;;5086645;28;20401;-88
2021/03/11 16:00:01;;;;;;;2.37;0.87;;;;;;;;;;5065938;28;20412;-88